الصفحة الرئيسية
METAR-TAF:

METAR-TAF

مطار :

Río Hato, بنما

دائرة عرض: 08-22-33N, خط طول: 080-07-40W, ارتفاع: 32 متر

METAR: مفقودة

زمن: 21:25 (02:25 UTC)

توقعات

تاريخ ووقت الإصدار 16ساعات و 25 دقيقة قبل الساعة 10:00UTC
التوقعات صالحة من14 الساعة 12 UTC إلى 15 الساعة 18 UTC
ريح 10 عقدة من الشمال/الشمال الغربي
الرؤية: 8000 متر
غيوم قليلة على ارتفاع 1300 قدم, مزنة ركامية.
غيوم مفككة على ارتفاع 10000 قدم
عاصفة رعدية, مطر
أصبح
من 14 الساعة 15 UTC إلى 14 الساعة 18 UTC
ريح 8 عقدة من الغرب/الشمال الغربي
الرؤية: 8000 متر
غيوم متفرقة على ارتفاع 1700 قدم
غيوم متفرقة على ارتفاع 8000 قدم
مطر

TAF: MPSM 141000Z 1412/1518 33010KT 8000 TSRA FEW013CB BKN100 BECMG 1415/1418 30008KT 8000 RA SCT017 SCT080

أرصاد الطقس والتوقعات من أكثر من 4000 مطار (تقارير الطقس للمطار METAR والتنبؤ بالطقس بالمطارTAF).

المحطات المتاحة هي النقط الصفراء والحمراء على الخريطة.

حرك المؤشر فوق النقطة لمعرفة اسم المحطة.

ثم انقر لمعرفة أرصاد وتوقعات الطقس.

لتغيير الخارطة: اضغط على الأزرار الخضراء مع رمز الصليب الأسود للتكبير. على الزر الأخضر مع شرطة للتصغير، أو على الأسهم الخضراء للخرائط المجاورة.


METAR-TAF: